Time;durP1;ratioP1;P1;durP2;ratioP2;P2;SDS_P1;SDS_P2;PMS_P1;PMS_P2;Temp;Humidity;BMP_temperature;BMP_pressure;BME280_temperature;BME280_humidity;BME280_pressure;Samples;Min_cycle;Max_cycle;Signal;HPM_P1;HPM_P2
2022/11/09 00:02:20;;;;;;;663.30;596.90;;;;;;;;;;4929210;28;20444;-77
2022/11/09 02:05:48;;;;;;;661.97;595.97;;;;;;;;;;4968071;28;20536;-77
2022/11/09 02:08:16;;;;;;;664.78;598.63;;;;;;;;;;4951680;28;20477;-77
2022/11/09 02:10:46;;;;;;;663.58;597.45;;;;;;;;;;4951133;28;21114;-77
2022/11/09 02:13:15;;;;;;;663.13;596.97;;;;;;;;;;4951525;28;20426;-77
2022/11/09 02:15:41;;;;;;;666.00;599.75;;;;;;;;;;4951840;28;20438;-77
2022/11/09 02:18:07;;;;;;;663.58;597.45;;;;;;;;;;4951741;28;20836;-77
2022/11/09 02:20:44;;;;;;;664.65;598.55;;;;;;;;;;4951787;28;20473;-77
2022/11/09 02:23:10;;;;;;;662.42;596.22;;;;;;;;;;4950212;28;20422;-77
2022/11/09 02:25:36;;;;;;;662.50;596.22;;;;;;;;;;4950776;28;20438;-77
2022/11/09 02:28:02;;;;;;;667.50;601.30;;;;;;;;;;4951679;28;20607;-77
2022/11/09 02:30:29;;;;;;;658.75;592.70;;;;;;;;;;4948410;28;20521;-77
2022/11/09 02:32:55;;;;;;;659.88;593.78;;;;;;;;;;4969363;28;20445;-77
2022/11/09 02:35:21;;;;;;;663.30;597.10;;;;;;;;;;4948829;28;20568;-77
2022/11/09 02:37:48;;;;;;;654.83;589.03;;;;;;;;;;4950890;28;20521;-77
2022/11/09 02:40:20;;;;;;;657.58;591.58;;;;;;;;;;4951424;28;20932;-77
2022/11/09 02:42:46;;;;;;;656.78;590.78;;;;;;;;;;4966657;28;20517;-77
2022/11/09 02:45:12;;;;;;;659.10;593.40;;;;;;;;;;4950116;28;20885;-77
2022/11/09 02:47:38;;;;;;;656.92;591.03;;;;;;;;;;4950791;28;20423;-77
2022/11/09 02:50:05;;;;;;;655.03;589.30;;;;;;;;;;4949852;28;20430;-77
2022/11/09 02:52:31;;;;;;;654.60;588.50;;;;;;;;;;4950640;28;20440;-78
2022/11/09 02:54:57;;;;;;;647.17;581.37;;;;;;;;;;4951467;28;20910;-77
2022/11/09 02:57:23;;;;;;;647.47;581.78;;;;;;;;;;4951415;28;20917;-77
2022/11/09 02:59:49;;;;;;;653.05;587.10;;;;;;;;;;4947959;28;20454;-77
2022/11/09 03:02:15;;;;;;;646.47;580.78;;;;;;;;;;4967728;28;20508;-77
2022/11/09 03:04:41;;;;;;;645.08;579.33;;;;;;;;;;4980009;28;20448;-77
2022/11/09 03:07:07;;;;;;;651.10;585.28;;;;;;;;;;4968763;28;20432;-77
2022/11/09 03:09:33;;;;;;;648.15;582.28;;;;;;;;;;4954793;28;20991;-77
2022/11/09 03:12:27;;;;;;;647.92;582.10;;;;;;;;;;4969133;28;20574;-77
2022/11/09 03:14:45;;;;;;;646.72;581.00;;;;;;;;;;4967428;28;20444;-77
2022/11/09 03:17:12;;;;;;;644.65;578.95;;;;;;;;;;4971481;28;20444;-77
2022/11/09 03:19:39;;;;;;;649.30;583.42;;;;;;;;;;4968304;28;20432;-77
2022/11/09 03:22:05;;;;;;;644.70;578.95;;;;;;;;;;4954348;28;20656;-77
2022/11/09 03:24:31;;;;;;;643.83;578.15;;;;;;;;;;4991329;28;20428;-77
2022/11/09 03:26:57;;;;;;;642.00;576.35;;;;;;;;;;4968725;28;20572;-77
2022/11/09 03:29:23;;;;;;;645.28;579.47;;;;;;;;;;4968991;28;20798;-77
2022/11/09 03:31:49;;;;;;;644.47;578.85;;;;;;;;;;4969538;28;20448;-77
2022/11/09 03:34:15;;;;;;;640.28;574.78;;;;;;;;;;4952813;28;20428;-77
2022/11/09 03:36:41;;;;;;;645.83;580.03;;;;;;;;;;4985181;28;20462;-77
2022/11/09 03:39:07;;;;;;;642.00;576.33;;;;;;;;;;4968579;28;20436;-77
2022/11/09 03:41:34;;;;;;;642.20;576.53;;;;;;;;;;4955465;28;20503;-77
2022/11/09 03:44:00;;;;;;;643.88;578.20;;;;;;;;;;4969007;28;21390;-76
2022/11/09 03:46:26;;;;;;;645.55;579.70;;;;;;;;;;4968908;28;20432;-77
2022/11/09 03:48:52;;;;;;;649.20;583.17;;;;;;;;;;4988510;28;20556;-76
2022/11/09 03:51:18;;;;;;;642.35;576.65;;;;;;;;;;4991955;28;20869;-77
2022/11/09 03:53:44;;;;;;;644.80;579.00;;;;;;;;;;4984607;28;20425;-78
2022/11/09 03:56:10;;;;;;;638.10;572.50;;;;;;;;;;4987594;28;20494;-77
2022/11/09 03:58:36;;;;;;;644.33;578.50;;;;;;;;;;4971168;28;20440;-77
2022/11/09 04:01:02;;;;;;;643.78;577.90;;;;;;;;;;4972156;28;20436;-77
2022/11/09 04:03:28;;;;;;;646.63;580.60;;;;;;;;;;4968643;28;21156;-77
2022/11/09 04:05:54;;;;;;;640.83;575.15;;;;;;;;;;4971252;28;20474;-76
2022/11/09 04:08:21;;;;;;;641.25;575.50;;;;;;;;;;4972493;28;20643;-77
2022/11/09 04:10:47;;;;;;;637.92;572.33;;;;;;;;;;4973403;28;21480;-77
2022/11/09 04:13:13;;;;;;;639.15;573.47;;;;;;;;;;4971970;28;20535;-78
2022/11/09 04:15:39;;;;;;;636.00;570.50;;;;;;;;;;4972667;28;20507;-77
2022/11/09 04:18:05;;;;;;;637.85;572.15;;;;;;;;;;4971467;28;20563;-77
2022/11/09 04:20:31;;;;;;;635.78;570.28;;;;;;;;;;4974970;28;20515;-77
2022/11/09 04:22:59;;;;;;;636.27;570.67;;;;;;;;;;4987734;28;21363;-77
2022/11/09 04:25:25;;;;;;;636.13;570.50;;;;;;;;;;4989823;28;20440;-77
2022/11/09 04:27:55;;;;;;;634.13;568.72;;;;;;;;;;4989812;28;21062;-76
2022/11/09 04:30:22;;;;;;;642.08;576.28;;;;;;;;;;4971133;28;20438;-77
2022/11/09 04:32:48;;;;;;;633.15;567.75;;;;;;;;;;4972512;28;20433;-77
2022/11/09 04:35:14;;;;;;;634.60;569.15;;;;;;;;;;4972648;28;21105;-77
2022/11/09 04:37:40;;;;;;;639.72;574.03;;;;;;;;;;4971821;28;20448;-77
2022/11/09 04:40:06;;;;;;;637.85;572.15;;;;;;;;;;4987910;28;20562;-77
2022/11/09 04:42:32;;;;;;;637.97;572.38;;;;;;;;;;4973148;28;20435;-76
2022/11/09 04:44:58;;;;;;;636.45;570.95;;;;;;;;;;4988131;28;20424;-76
2022/11/09 04:47:24;;;;;;;637.58;571.97;;;;;;;;;;4972740;28;20428;-77
2022/11/09 04:49:50;;;;;;;637.78;572.30;;;;;;;;;;4991476;28;20507;-77
2022/11/09 04:52:16;;;;;;;640.20;574.60;;;;;;;;;;4972248;28;20455;-77
2022/11/09 04:54:42;;;;;;;638.10;572.60;;;;;;;;;;4971766;28;20795;-77
2022/11/09 04:57:08;;;;;;;637.65;572.15;;;;;;;;;;4955306;28;20437;-77
2022/11/09 04:59:34;;;;;;;640.80;575.22;;;;;;;;;;4970368;28;20530;-77
2022/11/09 05:02:00;;;;;;;642.33;576.53;;;;;;;;;;4968571;28;20441;-78
2022/11/09 05:04:26;;;;;;;641.80;576.05;;;;;;;;;;4988571;28;21299;-77
2022/11/09 05:06:52;;;;;;;640.63;575.13;;;;;;;;;;4969700;28;20432;-77
2022/11/09 05:09:18;;;;;;;643.03;577.33;;;;;;;;;;4970758;28;20437;-76
2022/11/09 05:11:44;;;;;;;646.75;580.85;;;;;;;;;;4971989;28;20436;-77
2022/11/09 05:14:10;;;;;;;641.78;576.17;;;;;;;;;;4971452;28;20425;-77
2022/11/09 05:16:36;;;;;;;647.10;581.20;;;;;;;;;;4955034;28;20857;-76
2022/11/09 05:19:02;;;;;;;640.45;575.03;;;;;;;;;;4970151;28;20437;-76
2022/11/09 05:21:28;;;;;;;643.42;577.58;;;;;;;;;;4984430;28;20420;-77
2022/11/09 05:23:57;;;;;;;647.85;582.13;;;;;;;;;;4969706;28;21033;-77
2022/11/09 05:26:23;;;;;;;643.80;578.00;;;;;;;;;;4970246;28;20429;-77
2022/11/09 05:28:51;;;;;;;642.95;577.25;;;;;;;;;;4969795;28;20437;-77
2022/11/09 05:31:17;;;;;;;645.80;579.90;;;;;;;;;;4952616;28;20433;-77
2022/11/09 05:33:43;;;;;;;649.28;583.38;;;;;;;;;;4968628;28;20435;-77
2022/11/09 05:36:09;;;;;;;648.03;582.25;;;;;;;;;;4970360;28;22205;-77
2022/11/09 05:38:35;;;;;;;644.22;578.42;;;;;;;;;;4971012;28;20433;-77
2022/11/09 05:41:01;;;;;;;643.90;578.28;;;;;;;;;;4990848;28;20993;-77
2022/11/09 05:43:27;;;;;;;649.55;583.65;;;;;;;;;;4988623;28;20424;-77
2022/11/09 05:45:53;;;;;;;647.40;581.47;;;;;;;;;;4970378;28;20443;-77
2022/11/09 05:48:19;;;;;;;646.33;580.53;;;;;;;;;;4969511;28;20432;-77
2022/11/09 05:50:45;;;;;;;640.70;575.10;;;;;;;;;;4970316;28;20805;-77
2022/11/09 05:53:12;;;;;;;644.15;578.35;;;;;;;;;;4990264;28;20451;-77
2022/11/09 05:55:38;;;;;;;641.78;576.17;;;;;;;;;;4989577;28;20436;-77
2022/11/09 05:58:05;;;;;;;641.35;575.55;;;;;;;;;;4952249;28;20803;-77
2022/11/09 06:00:31;;;;;;;643.80;578.10;;;;;;;;;;4970473;28;20436;-77
2022/11/09 06:03:17;;;;;;;645.72;579.92;;;;;;;;;;4984010;28;20520;-76
2022/11/09 06:05:43;;;;;;;640.05;574.45;;;;;;;;;;4968492;28;20985;-77
2022/11/09 06:08:11;;;;;;;640.50;575.00;;;;;;;;;;4970714;28;20463;-77
2022/11/09 06:10:38;;;;;;;639.17;573.40;;;;;;;;;;4967582;28;20508;-76
2022/11/09 06:13:04;;;;;;;639.65;573.95;;;;;;;;;;4965371;28;20444;-77
2022/11/09 06:15:30;;;;;;;635.00;569.50;;;;;;;;;;4965753;28;20429;-77
2022/11/09 06:17:57;;;;;;;636.90;571.30;;;;;;;;;;4950988;28;21239;-77
2022/11/09 06:20:23;;;;;;;635.20;569.80;;;;;;;;;;4983131;28;20438;-77
2022/11/09 06:22:56;;;;;;;634.10;568.65;;;;;;;;;;4983206;28;20428;-76
2022/11/09 06:25:22;;;;;;;629.60;564.15;;;;;;;;;;4967601;28;21016;-77
2022/11/09 06:27:48;;;;;;;625.20;559.97;;;;;;;;;;4968420;28;20445;-76
2022/11/09 06:30:15;;;;;;;626.95;561.72;;;;;;;;;;4972090;28;20586;-77
2022/11/09 06:32:41;;;;;;;630.13;564.72;;;;;;;;;;4985528;28;20439;-77
2022/11/09 06:35:07;;;;;;;629.72;564.42;;;;;;;;;;4987395;28;20920;-78
2022/11/09 06:37:33;;;;;;;633.00;567.40;;;;;;;;;;4969461;28;20433;-77
2022/11/09 06:39:59;;;;;;;630.45;565.13;;;;;;;;;;4970168;28;20437;-77
2022/11/09 06:42:25;;;;;;;628.13;562.83;;;;;;;;;;4969406;28;20658;-77
2022/11/09 06:44:51;;;;;;;631.22;565.83;;;;;;;;;;4970825;28;20663;-77
2022/11/09 06:47:17;;;;;;;630.35;564.85;;;;;;;;;;4968629;28;20432;-78
2022/11/09 06:49:43;;;;;;;627.80;562.50;;;;;;;;;;4970097;28;20795;-77
2022/11/09 06:52:09;;;;;;;626.17;560.88;;;;;;;;;;4968201;28;20439;-77
2022/11/09 06:54:35;;;;;;;623.08;557.97;;;;;;;;;;4970445;28;20451;-77
2022/11/09 06:57:01;;;;;;;627.22;561.97;;;;;;;;;;4967364;28;20437;-77
2022/11/09 06:59:27;;;;;;;630.47;565.03;;;;;;;;;;4970256;28;20487;-77
2022/11/09 07:01:53;;;;;;;629.22;563.88;;;;;;;;;;4967010;28;20440;-77
2022/11/09 07:04:19;;;;;;;630.17;564.63;;;;;;;;;;4968837;28;20481;-77
2022/11/09 07:06:45;;;;;;;624.15;559.05;;;;;;;;;;4970445;28;22253;-76
2022/11/09 07:09:12;;;;;;;624.97;559.65;;;;;;;;;;4968134;28;20435;-77
2022/11/09 07:11:38;;;;;;;621.70;556.50;;;;;;;;;;4969002;28;20429;-77
2022/11/09 07:14:04;;;;;;;625.78;560.47;;;;;;;;;;4968815;28;20503;-77
2022/11/09 07:16:30;;;;;;;626.17;560.83;;;;;;;;;;4969340;28;20433;-78
2022/11/09 07:18:56;;;;;;;624.50;559.20;;;;;;;;;;4989085;28;20432;-77
2022/11/09 07:21:23;;;;;;;628.33;563.03;;;;;;;;;;4969888;28;20468;-76
2022/11/09 07:23:49;;;;;;;626.92;561.63;;;;;;;;;;4987655;28;20416;-76
2022/11/09 07:26:15;;;;;;;623.03;557.90;;;;;;;;;;4972581;28;20432;-76
2022/11/09 07:28:42;;;;;;;625.33;560.03;;;;;;;;;;4988518;28;20883;-76
2022/11/09 07:31:08;;;;;;;628.25;562.88;;;;;;;;;;4973571;28;21242;-76
2022/11/09 07:33:34;;;;;;;627.92;562.63;;;;;;;;;;4955640;28;20474;-75
2022/11/09 07:36:01;;;;;;;629.78;564.53;;;;;;;;;;4970453;28;20464;-77
2022/11/09 07:38:28;;;;;;;636.20;570.78;;;;;;;;;;4988002;28;20432;-78
2022/11/09 07:40:54;;;;;;;639.83;574.40;;;;;;;;;;4990896;28;20429;-73
2022/11/09 07:43:20;;;;;;;651.92;586.08;;;;;;;;;;4973815;28;20799;-76
2022/11/09 07:45:46;;;;;;;656.30;590.23;;;;;;;;;;4973802;28;20424;-76
2022/11/09 07:48:12;;;;;;;657.88;591.78;;;;;;;;;;4970180;28;20432;-75
2022/11/09 07:50:39;;;;;;;659.25;593.22;;;;;;;;;;4972787;28;20460;-73
2022/11/09 07:53:06;;;;;;;665.80;599.50;;;;;;;;;;4969719;28;20428;-74
2022/11/09 07:55:32;;;;;;;673.67;607.10;;;;;;;;;;4958186;28;21772;-75
2022/11/09 07:58:02;;;;;;;676.58;610.17;;;;;;;;;;4973111;28;20443;-76
2022/11/09 08:00:30;;;;;;;686.42;619.63;;;;;;;;;;4974739;28;20946;-75
2022/11/09 08:02:56;;;;;;;689.15;622.33;;;;;;;;;;4973602;28;20886;-74
2022/11/09 08:05:22;;;;;;;700.20;633.00;;;;;;;;;;4974595;28;20452;-76
2022/11/09 08:07:53;;;;;;;707.85;640.55;;;;;;;;;;4974567;28;20436;-77
2022/11/09 08:10:19;;;;;;;713.33;645.90;;;;;;;;;;4993196;28;20425;-78
2022/11/09 08:12:51;;;;;;;723.90;656.10;;;;;;;;;;4972716;28;20518;-76
2022/11/09 08:15:17;;;;;;;731.15;663.25;;;;;;;;;;4990666;28;20519;-75
2022/11/09 08:17:44;;;;;;;734.30;666.20;;;;;;;;;;4974244;28;20525;-74
2022/11/09 08:20:10;;;;;;;745.03;676.63;;;;;;;;;;4974388;28;20442;-74
2022/11/09 08:22:40;;;;;;;746.45;678.05;;;;;;;;;;4971134;28;21886;-74
2022/11/09 08:25:06;;;;;;;745.30;677.00;;;;;;;;;;4989966;28;20444;-74
2022/11/09 08:27:38;;;;;;;746.50;677.90;;;;;;;;;;4973297;28;20855;-75
2022/11/09 08:30:05;;;;;;;740.70;672.40;;;;;;;;;;4955845;28;25116;-74
2022/11/09 08:32:31;;;;;;;737.53;669.33;;;;;;;;;;4972838;28;20544;-74
2022/11/09 08:34:57;;;;;;;732.58;664.65;;;;;;;;;;4992204;28;20424;-74
2022/11/09 08:37:23;;;;;;;737.47;669.27;;;;;;;;;;4973777;28;20938;-75
2022/11/09 08:39:49;;;;;;;732.95;664.92;;;;;;;;;;4991751;28;20441;-75
2022/11/09 08:42:15;;;;;;;732.80;664.70;;;;;;;;;;4990326;28;20623;-75
2022/11/09 08:44:41;;;;;;;732.60;664.50;;;;;;;;;;4972613;28;20787;-74
2022/11/09 08:47:07;;;;;;;738.93;670.73;;;;;;;;;;4973372;28;20468;-75
2022/11/09 08:49:34;;;;;;;740.13;671.92;;;;;;;;;;4973135;28;20483;-74
2022/11/09 08:52:00;;;;;;;748.15;679.67;;;;;;;;;;4973417;28;20445;-75
2022/11/09 08:54:26;;;;;;;750.25;681.70;;;;;;;;;;4973603;28;20790;-75
2022/11/09 08:56:54;;;;;;;757.13;688.38;;;;;;;;;;4991931;28;20503;-75
2022/11/09 08:59:21;;;;;;;762.65;693.72;;;;;;;;;;4988211;28;20472;-74
2022/11/09 09:01:47;;;;;;;764.63;695.75;;;;;;;;;;4972126;28;20972;-74
2022/11/09 09:04:13;;;;;;;776.45;707.17;;;;;;;;;;4972385;28;20433;-74
2022/11/09 09:06:39;;;;;;;778.95;709.65;;;;;;;;;;4973823;28;20424;-74
2022/11/09 09:09:05;;;;;;;790.53;720.83;;;;;;;;;;4973087;28;20551;-75
2022/11/09 09:11:31;;;;;;;801.97;731.88;;;;;;;;;;4970818;28;20428;-74
2022/11/09 09:13:57;;;;;;;805.45;735.35;;;;;;;;;;4973083;28;20421;-75
2022/11/09 09:16:23;;;;;;;807.30;737.17;;;;;;;;;;4971690;28;20433;-74
2022/11/09 09:18:49;;;;;;;809.47;739.38;;;;;;;;;;4973987;28;20676;-77
2022/11/09 09:21:15;;;;;;;808.03;737.70;;;;;;;;;;4971632;28;20646;-76
2022/11/09 09:23:41;;;;;;;803.40;733.40;;;;;;;;;;4972930;28;20905;-75
2022/11/09 09:26:07;;;;;;;808.50;738.30;;;;;;;;;;4972035;28;20547;-77
2022/11/09 09:28:33;;;;;;;829.53;758.83;;;;;;;;;;4972121;28;20775;-75
2022/11/09 09:31:00;;;;;;;836.88;766.30;;;;;;;;;;4972263;28;21203;-75
2022/11/09 09:33:27;;;;;;;866.38;794.88;;;;;;;;;;4972386;28;20429;-76
2022/11/09 09:35:56;;;;;;;884.00;811.67;;;;;;;;;;4972543;28;20471;-76
2022/11/09 09:38:22;;;;;;;893.05;820.35;;;;;;;;;;4972938;28;20515;-75
2022/11/09 09:40:59;;;;;;;887.75;815.03;;;;;;;;;;4972317;28;20938;-75
2022/11/09 09:43:28;;;;;;;879.88;807.53;;;;;;;;;;4971036;28;20943;-76
2022/11/09 09:45:54;;;;;;;868.50;796.60;;;;;;;;;;4991453;28;20477;-76
2022/11/09 09:48:30;;;;;;;858.25;786.67;;;;;;;;;;4972166;28;20635;-77
2022/11/09 09:51:03;;;;;;;849.72;778.33;;;;;;;;;;4975443;28;20443;-75
2022/11/09 09:53:31;;;;;;;852.53;780.92;;;;;;;;;;4992844;28;20466;-75
2022/11/09 09:56:16;;;;;;;837.63;766.63;;;;;;;;;;4957547;28;20443;-74
2022/11/09 09:58:45;;;;;;;836.87;765.87;;;;;;;;;;4972047;28;21026;-74
2022/11/09 10:01:15;;;;;;;829.65;758.85;;;;;;;;;;4972128;28;20456;-76
2022/11/09 10:03:41;;;;;;;828.30;757.58;;;;;;;;;;4970736;28;20436;-75
2022/11/09 10:06:26;;;;;;;827.10;756.30;;;;;;;;;;4970769;28;20475;-75
2022/11/09 10:08:55;;;;;;;825.10;754.42;;;;;;;;;;4986243;28;20523;-75
2022/11/09 10:11:30;;;;;;;825.53;754.83;;;;;;;;;;4990307;28;20933;-75
2022/11/09 10:14:12;;;;;;;831.42;760.28;;;;;;;;;;4965751;28;21823;-75
2022/11/09 10:16:50;;;;;;;822.23;751.70;;;;;;;;;;4968554;28;20556;-76
2022/11/09 10:19:35;;;;;;;819.30;748.72;;;;;;;;;;4970742;28;20476;-75
2022/11/09 10:22:22;;;;;;;818.85;748.45;;;;;;;;;;4971811;28;20442;-77
2022/11/09 10:24:53;;;;;;;819.95;749.55;;;;;;;;;;4988762;28;20424;-76
2022/11/09 10:27:36;;;;;;;814.75;744.45;;;;;;;;;;4968477;28;20441;-75
2022/11/09 10:30:17;;;;;;;813.67;743.47;;;;;;;;;;4971279;28;20459;-84
2022/11/09 10:32:45;;;;;;;806.97;736.88;;;;;;;;;;4971535;28;20432;-74
2022/11/09 10:35:14;;;;;;;804.42;734.42;;;;;;;;;;4986338;28;20506;-78
2022/11/09 10:37:40;;;;;;;793.17;723.38;;;;;;;;;;4971046;28;22201;-78
2022/11/09 10:40:14;;;;;;;794.78;724.92;;;;;;;;;;4970881;28;20441;-76
2022/11/09 10:42:42;;;;;;;786.20;716.35;;;;;;;;;;4971735;28;20433;-77
2022/11/09 10:45:14;;;;;;;786.50;716.92;;;;;;;;;;4985596;28;20989;-77
2022/11/09 10:47:48;;;;;;;782.65;713.13;;;;;;;;;;4987060;28;20446;-77
2022/11/09 10:50:32;;;;;;;783.13;713.72;;;;;;;;;;4971402;28;20992;-76
2022/11/09 10:53:08;;;;;;;784.08;714.58;;;;;;;;;;4970510;28;20448;-79
2022/11/09 10:55:35;;;;;;;783.40;714.05;;;;;;;;;;4954667;28;20919;-77
2022/11/09 10:58:12;;;;;;;787.53;717.77;;;;;;;;;;4969407;28;20541;-75
2022/11/09 11:00:54;;;;;;;781.00;711.63;;;;;;;;;;4971475;28;20448;-75
2022/11/09 11:03:23;;;;;;;780.90;711.58;;;;;;;;;;4987333;28;20432;-78
2022/11/09 11:05:57;;;;;;;780.42;710.83;;;;;;;;;;4969277;28;20854;-78
2022/11/09 11:08:25;;;;;;;776.72;707.25;;;;;;;;;;4968415;28;20465;-78
2022/11/09 11:10:51;;;;;;;773.83;704.53;;;;;;;;;;4987129;28;20618;-74
2022/11/09 11:13:21;;;;;;;772.80;703.45;;;;;;;;;;4970423;28;21183;-75
2022/11/09 11:15:47;;;;;;;766.42;697.70;;;;;;;;;;4970485;28;20627;-76
2022/11/09 11:18:22;;;;;;;766.95;697.88;;;;;;;;;;4953685;28;20862;-73
2022/11/09 11:20:48;;;;;;;773.95;704.80;;;;;;;;;;4986778;28;20962;-75
2022/11/09 11:23:16;;;;;;;769.53;700.35;;;;;;;;;;4986272;28;21248;-76
2022/11/09 11:25:55;;;;;;;768.92;699.83;;;;;;;;;;4986588;28;20499;-76
2022/11/09 11:28:38;;;;;;;770.67;701.67;;;;;;;;;;4970080;28;20446;-74
2022/11/09 11:31:04;;;;;;;768.92;699.78;;;;;;;;;;4986860;28;20791;-74
2022/11/09 11:33:33;;;;;;;768.33;699.33;;;;;;;;;;4969050;28;20966;-74
2022/11/09 11:36:18;;;;;;;768.25;699.38;;;;;;;;;;4970729;28;20472;-74
2022/11/09 11:39:06;;;;;;;765.00;696.10;;;;;;;;;;4968852;28;20440;-74
2022/11/09 11:41:43;;;;;;;766.58;697.67;;;;;;;;;;4970512;28;20484;-75
2022/11/09 11:44:09;;;;;;;767.53;698.53;;;;;;;;;;4970027;28;20636;-76
2022/11/09 11:46:35;;;;;;;763.53;694.63;;;;;;;;;;4992668;28;20452;-75
2022/11/09 11:49:28;;;;;;;763.57;694.73;;;;;;;;;;4985946;28;20440;-76
2022/11/09 11:52:10;;;;;;;764.15;695.25;;;;;;;;;;4986767;28;20425;-76
2022/11/09 11:54:45;;;;;;;764.53;695.73;;;;;;;;;;4970705;28;20463;-76
2022/11/09 11:57:25;;;;;;;771.10;701.97;;;;;;;;;;4953667;28;21025;-75
2022/11/09 11:59:56;;;;;;;769.13;700.13;;;;;;;;;;4968899;28;20441;-75
2022/11/09 12:02:31;;;;;;;764.30;695.40;;;;;;;;;;4970226;28;20457;-77
2022/11/09 12:04:59;;;;;;;768.03;699.03;;;;;;;;;;4961957;28;20546;-76
2022/11/09 12:07:40;;;;;;;756.67;688.20;;;;;;;;;;4944795;28;20517;-77
2022/11/09 12:10:10;;;;;;;760.30;691.50;;;;;;;;;;4934516;28;20457;-76
2022/11/09 12:12:51;;;;;;;760.00;691.30;;;;;;;;;;4945340;28;20509;-76
2022/11/09 12:15:47;;;;;;;752.80;684.30;;;;;;;;;;4939682;28;21071;-76
2022/11/09 12:18:16;;;;;;;758.85;689.95;;;;;;;;;;4962224;28;20442;-76
2022/11/09 12:20:52;;;;;;;753.80;685.35;;;;;;;;;;4953632;28;20470;-76
2022/11/09 12:23:25;;;;;;;750.53;682.03;;;;;;;;;;4953052;28;20492;-75
2022/11/09 12:25:57;;;;;;;751.78;683.35;;;;;;;;;;4953581;28;20431;-75
2022/11/09 12:28:41;;;;;;;756.80;688.20;;;;;;;;;;4952874;28;20436;-75
2022/11/09 12:31:28;;;;;;;759.33;690.53;;;;;;;;;;4955002;28;20851;-76
2022/11/09 12:33:58;;;;;;;757.95;689.28;;;;;;;;;;4953330;28;20434;-76
2022/11/09 12:36:32;;;;;;;758.63;689.85;;;;;;;;;;4952422;28;20442;-76
2022/11/09 12:39:07;;;;;;;758.95;690.35;;;;;;;;;;4932515;28;20434;-76
2022/11/09 12:41:35;;;;;;;753.88;685.28;;;;;;;;;;4953908;28;20446;-76
2022/11/09 12:44:13;;;;;;;758.27;689.57;;;;;;;;;;4951469;28;20434;-75
2022/11/09 12:46:41;;;;;;;756.10;687.70;;;;;;;;;;4948121;28;20446;-75
2022/11/09 12:49:23;;;;;;;758.45;689.85;;;;;;;;;;4953341;28;20441;-75
2022/11/09 12:51:49;;;;;;;757.33;688.78;;;;;;;;;;4954317;28;20453;-75
2022/11/09 12:54:15;;;;;;;755.45;687.05;;;;;;;;;;4950992;28;20528;-75
2022/11/09 12:56:47;;;;;;;755.35;686.75;;;;;;;;;;4946206;28;21031;-74
2022/11/09 12:59:21;;;;;;;751.53;683.03;;;;;;;;;;4970521;28;20544;-75
2022/11/09 13:01:50;;;;;;;747.75;679.55;;;;;;;;;;4951766;28;21034;-74
2022/11/09 13:04:18;;;;;;;746.25;678.03;;;;;;;;;;4954939;28;20442;-75
2022/11/09 13:07:04;;;;;;;740.97;672.83;;;;;;;;;;4990294;28;20504;-74
2022/11/09 13:09:30;;;;;;;735.20;667.30;;;;;;;;;;4990105;28;20589;-75
2022/11/09 13:11:56;;;;;;;735.20;667.20;;;;;;;;;;4991504;28;20477;-76
2022/11/09 13:14:27;;;;;;;733.73;665.93;;;;;;;;;;4974646;28;20483;-76
2022/11/09 13:16:54;;;;;;;724.65;656.95;;;;;;;;;;5007963;28;20723;-75
2022/11/09 13:19:39;;;;;;;731.28;663.30;;;;;;;;;;4989483;28;20447;-75
2022/11/09 13:22:12;;;;;;;729.65;661.75;;;;;;;;;;4988702;28;20500;-75
2022/11/09 13:24:53;;;;;;;723.75;655.90;;;;;;;;;;4973980;28;20434;-75
2022/11/09 13:27:38;;;;;;;722.42;654.63;;;;;;;;;;4990505;28;20509;-76
2022/11/09 13:30:23;;;;;;;716.25;648.75;;;;;;;;;;5011553;28;20434;-75
2022/11/09 13:33:22;;;;;;;716.20;648.60;;;;;;;;;;4991291;28;20449;-75
2022/11/09 13:35:48;;;;;;;715.70;648.10;;;;;;;;;;4951081;28;20921;-74
2022/11/09 13:38:21;;;;;;;718.85;651.08;;;;;;;;;;4989823;28;20435;-74
2022/11/09 13:40:48;;;;;;;712.80;645.33;;;;;;;;;;5006948;28;20956;-75
2022/11/09 13:43:25;;;;;;;715.03;647.42;;;;;;;;;;4991007;28;20488;-75
2022/11/09 13:45:58;;;;;;;710.40;643.00;;;;;;;;;;4991083;28;20443;-74
2022/11/09 13:48:30;;;;;;;713.85;646.28;;;;;;;;;;4973372;28;20510;-76
2022/11/09 13:50:58;;;;;;;709.57;642.07;;;;;;;;;;4990769;28;20441;-74
2022/11/09 13:53:28;;;;;;;707.75;640.35;;;;;;;;;;4989860;28;21113;-76
2022/11/09 13:55:54;;;;;;;707.50;640.10;;;;;;;;;;4989470;28;20447;-75
2022/11/09 13:58:20;;;;;;;707.13;639.72;;;;;;;;;;4986734;28;20496;-75
2022/11/09 14:00:46;;;;;;;707.13;639.83;;;;;;;;;;4990594;28;20446;-74
2022/11/09 14:03:18;;;;;;;703.00;635.70;;;;;;;;;;4990251;28;20418;-75
2022/11/09 14:05:45;;;;;;;704.38;637.15;;;;;;;;;;5006484;28;20970;-74
2022/11/09 14:08:20;;;;;;;701.30;634.10;;;;;;;;;;4989619;28;20445;-75
2022/11/09 14:11:01;;;;;;;698.50;631.25;;;;;;;;;;4990756;28;20804;-74
2022/11/09 14:13:30;;;;;;;693.83;626.72;;;;;;;;;;5003681;28;20427;-75
2022/11/09 14:16:16;;;;;;;689.63;622.83;;;;;;;;;;4989584;28;20418;-75
2022/11/09 14:19:08;;;;;;;689.97;623.20;;;;;;;;;;4990844;28;21205;-74
2022/11/09 14:21:46;;;;;;;692.35;625.38;;;;;;;;;;5007835;28;20462;-74
2022/11/09 14:24:12;;;;;;;692.22;625.33;;;;;;;;;;4989941;28;22221;-75
2022/11/09 14:26:38;;;;;;;692.58;625.58;;;;;;;;;;4990193;28;20441;-74
2022/11/09 14:29:24;;;;;;;691.47;624.57;;;;;;;;;;4989905;28;20422;-74
2022/11/09 14:31:51;;;;;;;688.88;621.97;;;;;;;;;;4987025;28;20554;-75
2022/11/09 14:34:17;;;;;;;685.10;618.40;;;;;;;;;;4990390;28;20423;-75
2022/11/09 14:36:44;;;;;;;682.50;615.70;;;;;;;;;;4990310;28;20461;-73
2022/11/09 14:39:22;;;;;;;679.55;613.05;;;;;;;;;;4987970;28;20443;-74
2022/11/09 14:41:48;;;;;;;684.88;618.13;;;;;;;;;;4990264;28;20533;-75
2022/11/09 14:44:28;;;;;;;682.95;616.25;;;;;;;;;;4972426;28;20422;-75
2022/11/09 14:46:55;;;;;;;675.13;608.67;;;;;;;;;;5010885;28;20506;-74
2022/11/09 14:49:23;;;;;;;673.40;606.95;;;;;;;;;;4990257;28;21360;-74
2022/11/09 14:51:49;;;;;;;675.17;608.78;;;;;;;;;;4989604;28;21590;-74
2022/11/09 14:54:17;;;;;;;676.78;610.25;;;;;;;;;;4988278;28;20419;-75
2022/11/09 14:56:44;;;;;;;671.38;604.88;;;;;;;;;;4990000;28;20489;-74
2022/11/09 14:59:14;;;;;;;668.55;602.25;;;;;;;;;;4975042;28;20517;-74
2022/11/09 15:01:40;;;;;;;664.90;598.70;;;;;;;;;;4989280;28;20438;-74
2022/11/09 15:04:13;;;;;;;664.50;598.15;;;;;;;;;;4990842;28;20422;-73
2022/11/09 15:06:49;;;;;;;662.72;596.63;;;;;;;;;;4987956;28;20533;-74
2022/11/09 15:09:19;;;;;;;660.92;594.83;;;;;;;;;;4973355;28;21200;-75
2022/11/09 15:11:45;;;;;;;655.03;589.10;;;;;;;;;;4989897;28;20439;-74
2022/11/09 15:14:31;;;;;;;655.20;589.22;;;;;;;;;;4989408;28;21087;-73
2022/11/09 15:17:15;;;;;;;645.95;580.35;;;;;;;;;;4988229;28;20530;-74
2022/11/09 15:19:50;;;;;;;653.35;587.25;;;;;;;;;;4988834;28;20435;-75
2022/11/09 15:22:35;;;;;;;654.08;588.17;;;;;;;;;;5009673;28;20931;-76
2022/11/09 15:25:01;;;;;;;651.95;586.05;;;;;;;;;;5006198;28;20564;-75
2022/11/09 15:27:31;;;;;;;648.40;582.58;;;;;;;;;;4988526;28;21163;-76
2022/11/09 15:29:57;;;;;;;647.58;581.78;;;;;;;;;;4988653;28;20861;-74
2022/11/09 15:32:24;;;;;;;643.58;577.97;;;;;;;;;;5008402;28;20517;-77
2022/11/09 15:34:50;;;;;;;645.88;580.08;;;;;;;;;;4989032;28;20485;-76
2022/11/09 15:37:19;;;;;;;646.33;580.53;;;;;;;;;;4988217;28;20545;-76
2022/11/09 15:39:45;;;;;;;648.80;583.00;;;;;;;;;;4988407;28;21070;-75
2022/11/09 15:42:11;;;;;;;647.55;581.65;;;;;;;;;;4988444;28;20430;-76
2022/11/09 15:44:38;;;;;;;644.80;579.20;;;;;;;;;;4994790;28;20446;-75
2022/11/09 15:47:04;;;;;;;643.92;578.42;;;;;;;;;;4975403;28;20466;-75
2022/11/09 15:49:30;;;;;;;644.40;578.63;;;;;;;;;;4993373;28;20426;-75
2022/11/09 15:51:56;;;;;;;644.13;578.45;;;;;;;;;;4990159;28;20457;-75
2022/11/09 15:54:23;;;;;;;642.47;576.97;;;;;;;;;;5011176;28;20423;-76
2022/11/09 15:56:50;;;;;;;644.15;578.45;;;;;;;;;;4970154;28;20433;-75
2022/11/09 15:59:19;;;;;;;635.50;570.10;;;;;;;;;;4994697;28;20496;-76
2022/11/09 16:01:45;;;;;;;637.42;572.00;;;;;;;;;;4993883;28;20975;-75
2022/11/09 16:04:11;;;;;;;641.93;576.23;;;;;;;;;;4990970;28;20888;-75
2022/11/09 16:06:37;;;;;;;633.83;568.40;;;;;;;;;;4974588;28;20442;-75